sensor_id;sensor_type;location;lat;lon;timestamp;P1;P2;P0
62054;PMS5003;48653;51.742;-1.256;2023-02-15T00:03:43;104;90;
62054;PMS5003;48653;51.742;-1.256;2023-02-15T00:06:08;106;89;
62054;PMS5003;48653;51.742;-1.256;2023-02-15T00:08:34;95;87;
62054;PMS5003;48653;51.742;-1.256;2023-02-15T00:11:03;88;79;
62054;PMS5003;48653;51.742;-1.256;2023-02-15T00:13:25;88;81;
62054;PMS5003;48653;51.742;-1.256;2023-02-15T00:15:51;107;87;
62054;PMS5003;48653;51.742;-1.256;2023-02-15T00:18:16;104;80;
62054;PMS5003;48653;51.742;-1.256;2023-02-15T00:20:41;108;93;
62054;PMS5003;48653;51.742;-1.256;2023-02-15T00:23:07;88;80;
62054;PMS5003;48653;51.742;-1.256;2023-02-15T00:25:32;98;88;
62054;PMS5003;48653;51.742;-1.256;2023-02-15T00:27:59;101;83;
62054;PMS5003;48653;51.742;-1.256;2023-02-15T00:30:23;85;78;
62054;PMS5003;48653;51.742;-1.256;2023-02-15T00:32:49;99;87;
62054;PMS5003;48653;51.742;-1.256;2023-02-15T00:35:14;97;87;
62054;PMS5003;48653;51.742;-1.256;2023-02-15T00:37:39;94;77;
62054;PMS5003;48653;51.742;-1.256;2023-02-15T00:40:05;95;82;
62054;PMS5003;48653;51.742;-1.256;2023-02-15T00:42:29;95;85;
62054;PMS5003;48653;51.742;-1.256;2023-02-15T00:44:54;93;79;
62054;PMS5003;48653;51.742;-1.256;2023-02-15T00:47:20;107;86;
62054;PMS5003;48653;51.742;-1.256;2023-02-15T00:49:45;94;80;
62054;PMS5003;48653;51.742;-1.256;2023-02-15T00:52:10;96;85;
62054;PMS5003;48653;51.742;-1.256;2023-02-15T00:54:36;99;90;
62054;PMS5003;48653;51.742;-1.256;2023-02-15T00:57:02;92;77;
62054;PMS5003;48653;51.742;-1.256;2023-02-15T00:59:27;87;78;
62054;PMS5003;48653;51.742;-1.256;2023-02-15T01:01:53;90;77;
62054;PMS5003;48653;51.742;-1.256;2023-02-15T01:04:19;95;80;
62054;PMS5003;48653;51.742;-1.256;2023-02-15T01:06:44;88;80;
62054;PMS5003;48653;51.742;-1.256;2023-02-15T01:09:10;91;85;
62054;PMS5003;48653;51.742;-1.256;2023-02-15T01:11:35;83;74;
62054;PMS5003;48653;51.742;-1.256;2023-02-15T01:14:01;109;86;
62054;PMS5003;48653;51.742;-1.256;2023-02-15T01:16:27;109;87;
62054;PMS5003;48653;51.742;-1.256;2023-02-15T01:18:52;97;83;
62054;PMS5003;48653;51.742;-1.256;2023-02-15T01:21:18;91;77;
62054;PMS5003;48653;51.742;-1.256;2023-02-15T01:23:43;90;77;
62054;PMS5003;48653;51.742;-1.256;2023-02-15T01:26:09;86;76;
62054;PMS5003;48653;51.742;-1.256;2023-02-15T01:28:34;91;77;
62054;PMS5003;48653;51.742;-1.256;2023-02-15T01:31:03;97;80;
62054;PMS5003;48653;51.742;-1.256;2023-02-15T01:33:25;94;84;
62054;PMS5003;48653;51.742;-1.256;2023-02-15T01:38:16;85;78;
62054;PMS5003;48653;51.742;-1.256;2023-02-15T01:40:41;98;81;
62054;PMS5003;48653;51.742;-1.256;2023-02-15T01:43:09;91;73;
62054;PMS5003;48653;51.742;-1.256;2023-02-15T01:45:32;98;84;
62054;PMS5003;48653;51.742;-1.256;2023-02-15T01:47:58;91;78;
62054;PMS5003;48653;51.742;-1.256;2023-02-15T01:50:24;91;82;
62054;PMS5003;48653;51.742;-1.256;2023-02-15T01:52:50;96;81;
62054;PMS5003;48653;51.742;-1.256;2023-02-15T01:55:14;101;85;
62054;PMS5003;48653;51.742;-1.256;2023-02-15T01:57:40;91;85;
62054;PMS5003;48653;51.742;-1.256;2023-02-15T02:00:06;90;81;
62054;PMS5003;48653;51.742;-1.256;2023-02-15T02:02:31;93;85;
62054;PMS5003;48653;51.742;-1.256;2023-02-15T02:04:58;102;88;
62054;PMS5003;48653;51.742;-1.256;2023-02-15T02:07:24;91;81;
62054;PMS5003;48653;51.742;-1.256;2023-02-15T02:09:48;99;87;
62054;PMS5003;48653;51.742;-1.256;2023-02-15T02:12:14;101;87;
62054;PMS5003;48653;51.742;-1.256;2023-02-15T02:14:39;95;84;
62054;PMS5003;48653;51.742;-1.256;2023-02-15T02:17:06;96;81;
62054;PMS5003;48653;51.742;-1.256;2023-02-15T02:24:23;84;73;
62054;PMS5003;48653;51.742;-1.256;2023-02-15T02:26:52;94;87;
62054;PMS5003;48653;51.742;-1.256;2023-02-15T02:31:41;86;74;
62054;PMS5003;48653;51.742;-1.256;2023-02-15T02:34:03;99;82;
62054;PMS5003;48653;51.742;-1.256;2023-02-15T02:36:30;88;76;
62054;PMS5003;48653;51.742;-1.256;2023-02-15T02:39:00;97;87;
62054;PMS5003;48653;51.742;-1.256;2023-02-15T02:41:21;93;82;
62054;PMS5003;48653;51.742;-1.256;2023-02-15T02:43:47;91;78;
62054;PMS5003;48653;51.742;-1.256;2023-02-15T02:46:11;102;83;
62054;PMS5003;48653;51.742;-1.256;2023-02-15T02:48:35;98;79;
62054;PMS5003;48653;51.742;-1.256;2023-02-15T02:51:00;86;76;
62054;PMS5003;48653;51.742;-1.256;2023-02-15T02:53:26;94;82;
62054;PMS5003;48653;51.742;-1.256;2023-02-15T02:55:53;98;87;
62054;PMS5003;48653;51.742;-1.256;2023-02-15T02:58:19;101;85;
62054;PMS5003;48653;51.742;-1.256;2023-02-15T03:00:44;97;75;
62054;PMS5003;48653;51.742;-1.256;2023-02-15T03:03:09;91;75;
62054;PMS5003;48653;51.742;-1.256;2023-02-15T03:05:34;94;83;
62054;PMS5003;48653;51.742;-1.256;2023-02-15T03:07:59;97;84;
62054;PMS5003;48653;51.742;-1.256;2023-02-15T03:10:25;98;83;
62054;PMS5003;48653;51.742;-1.256;2023-02-15T03:12:50;94;85;
62054;PMS5003;48653;51.742;-1.256;2023-02-15T03:15:17;93;82;
62054;PMS5003;48653;51.742;-1.256;2023-02-15T03:17:42;93;80;
62054;PMS5003;48653;51.742;-1.256;2023-02-15T03:20:08;105;85;
62054;PMS5003;48653;51.742;-1.256;2023-02-15T03:22:33;92;82;
62054;PMS5003;48653;51.742;-1.256;2023-02-15T03:24:59;101;83;
62054;PMS5003;48653;51.742;-1.256;2023-02-15T03:27:23;101;85;
62054;PMS5003;48653;51.742;-1.256;2023-02-15T03:29:49;93;80;
62054;PMS5003;48653;51.742;-1.256;2023-02-15T03:32:14;91;79;
62054;PMS5003;48653;51.742;-1.256;2023-02-15T03:34:40;94;78;
62054;PMS5003;48653;51.742;-1.256;2023-02-15T03:37:07;92;81;
62054;PMS5003;48653;51.742;-1.256;2023-02-15T03:39:32;85;77;
62054;PMS5003;48653;51.742;-1.256;2023-02-15T03:41:58;83;72;
62054;PMS5003;48653;51.742;-1.256;2023-02-15T03:44:24;86;70;
62054;PMS5003;48653;51.742;-1.256;2023-02-15T03:46:49;83;75;
62054;PMS5003;48653;51.742;-1.256;2023-02-15T03:49:15;86;74;
62054;PMS5003;48653;51.742;-1.256;2023-02-15T03:51:40;89;77;
62054;PMS5003;48653;51.742;-1.256;2023-02-15T03:54:06;84;75;
62054;PMS5003;48653;51.742;-1.256;2023-02-15T03:56:30;84;77;
62054;PMS5003;48653;51.742;-1.256;2023-02-15T03:58:55;78;69;
62054;PMS5003;48653;51.742;-1.256;2023-02-15T04:01:23;85;77;
62054;PMS5003;48653;51.742;-1.256;2023-02-15T04:03:48;80;69;
62054;PMS5003;48653;51.742;-1.256;2023-02-15T04:06:12;81;72;
62054;PMS5003;48653;51.742;-1.256;2023-02-15T04:08:37;85;79;
62054;PMS5003;48653;51.742;-1.256;2023-02-15T04:11:02;94;74;
62054;PMS5003;48653;51.742;-1.256;2023-02-15T04:13:29;99;82;
62054;PMS5003;48653;51.742;-1.256;2023-02-15T04:15:54;90;69;
62054;PMS5003;48653;51.742;-1.256;2023-02-15T04:18:19;85;74;
62054;PMS5003;48653;51.742;-1.256;2023-02-15T04:20:44;89;76;
62054;PMS5003;48653;51.742;-1.256;2023-02-15T04:23:09;97;79;
62054;PMS5003;48653;51.742;-1.256;2023-02-15T04:25:35;94;82;
62054;PMS5003;48653;51.742;-1.256;2023-02-15T04:28:00;89;79;
62054;PMS5003;48653;51.742;-1.256;2023-02-15T04:30:25;91;76;
62054;PMS5003;48653;51.742;-1.256;2023-02-15T04:32:51;88;75;
62054;PMS5003;48653;51.742;-1.256;2023-02-15T04:35:16;81;70;
62054;PMS5003;48653;51.742;-1.256;2023-02-15T04:37:41;89;76;
62054;PMS5003;48653;51.742;-1.256;2023-02-15T04:40:07;96;79;
62054;PMS5003;48653;51.742;-1.256;2023-02-15T04:42:31;91;83;
62054;PMS5003;48653;51.742;-1.256;2023-02-15T04:44:57;97;88;
62054;PMS5003;48653;51.742;-1.256;2023-02-15T04:47:22;102;81;
62054;PMS5003;48653;51.742;-1.256;2023-02-15T04:49:47;92;83;
62054;PMS5003;48653;51.742;-1.256;2023-02-15T04:52:13;98;82;
62054;PMS5003;48653;51.742;-1.256;2023-02-15T04:54:38;110;93;
62054;PMS5003;48653;51.742;-1.256;2023-02-15T04:57:04;99;89;
62054;PMS5003;48653;51.742;-1.256;2023-02-15T04:59:29;104;90;
62054;PMS5003;48653;51.742;-1.256;2023-02-15T05:01:54;103;88;
62054;PMS5003;48653;51.742;-1.256;2023-02-15T05:04:20;106;93;
62054;PMS5003;48653;51.742;-1.256;2023-02-15T05:06:45;111;93;
62054;PMS5003;48653;51.742;-1.256;2023-02-15T05:09:10;97;82;
62054;PMS5003;48653;51.742;-1.256;2023-02-15T05:11:36;103;88;
62054;PMS5003;48653;51.742;-1.256;2023-02-15T05:14:02;114;93;
62054;PMS5003;48653;51.742;-1.256;2023-02-15T05:16:27;112;98;
62054;PMS5003;48653;51.742;-1.256;2023-02-15T05:18:53;117;106;
62054;PMS5003;48653;51.742;-1.256;2023-02-15T05:21:18;120;99;
62054;PMS5003;48653;51.742;-1.256;2023-02-15T05:23:43;119;100;
62054;PMS5003;48653;51.742;-1.256;2023-02-15T05:26:09;109;97;
62054;PMS5003;48653;51.742;-1.256;2023-02-15T05:28:35;114;96;
62054;PMS5003;48653;51.742;-1.256;2023-02-15T05:31:02;119;95;
62054;PMS5003;48653;51.742;-1.256;2023-02-15T05:33:26;133;103;
62054;PMS5003;48653;51.742;-1.256;2023-02-15T05:35:51;119;94;
62054;PMS5003;48653;51.742;-1.256;2023-02-15T05:38:16;123;100;
62054;PMS5003;48653;51.742;-1.256;2023-02-15T05:40:41;119;98;
62054;PMS5003;48653;51.742;-1.256;2023-02-15T05:43:07;110;96;
62054;PMS5003;48653;51.742;-1.256;2023-02-15T05:45:33;123;103;
62054;PMS5003;48653;51.742;-1.256;2023-02-15T05:47:58;111;97;
62054;PMS5003;48653;51.742;-1.256;2023-02-15T05:50:24;123;103;
62054;PMS5003;48653;51.742;-1.256;2023-02-15T05:52:50;110;99;
62054;PMS5003;48653;51.742;-1.256;2023-02-15T05:55:15;124;107;
62054;PMS5003;48653;51.742;-1.256;2023-02-15T05:57:41;127;108;
62054;PMS5003;48653;51.742;-1.256;2023-02-15T06:00:07;132;103;
62054;PMS5003;48653;51.742;-1.256;2023-02-15T06:02:33;112;97;
62054;PMS5003;48653;51.742;-1.256;2023-02-15T06:04:57;119;99;
62054;PMS5003;48653;51.742;-1.256;2023-02-15T06:07:23;127;99;
62054;PMS5003;48653;51.742;-1.256;2023-02-15T06:09:49;123;104;
62054;PMS5003;48653;51.742;-1.256;2023-02-15T06:12:14;128;104;
62054;PMS5003;48653;51.742;-1.256;2023-02-15T06:14:39;122;102;
62054;PMS5003;48653;51.742;-1.256;2023-02-15T06:17:05;124;106;
62054;PMS5003;48653;51.742;-1.256;2023-02-15T06:19:30;136;108;
62054;PMS5003;48653;51.742;-1.256;2023-02-15T06:21:55;136;110;
62054;PMS5003;48653;51.742;-1.256;2023-02-15T06:24:21;135;111;
62054;PMS5003;48653;51.742;-1.256;2023-02-15T06:26:46;131;109;
62054;PMS5003;48653;51.742;-1.256;2023-02-15T06:29:12;141;108;
62054;PMS5003;48653;51.742;-1.256;2023-02-15T06:31:37;128;107;
62054;PMS5003;48653;51.742;-1.256;2023-02-15T06:34:03;138;112;
62054;PMS5003;48653;51.742;-1.256;2023-02-15T06:36:29;140;118;
62054;PMS5003;48653;51.742;-1.256;2023-02-15T06:38:54;142;109;
62054;PMS5003;48653;51.742;-1.256;2023-02-15T06:41:20;128;108;
62054;PMS5003;48653;51.742;-1.256;2023-02-15T06:43:45;131;113;
62054;PMS5003;48653;51.742;-1.256;2023-02-15T06:46:10;139;113;
62054;PMS5003;48653;51.742;-1.256;2023-02-15T06:48:36;134;114;
62054;PMS5003;48653;51.742;-1.256;2023-02-15T06:51:02;121;104;
62054;PMS5003;48653;51.742;-1.256;2023-02-15T06:53:27;137;108;
62054;PMS5003;48653;51.742;-1.256;2023-02-15T06:55:52;130;112;
62054;PMS5003;48653;51.742;-1.256;2023-02-15T06:58:17;122;106;
62054;PMS5003;48653;51.742;-1.256;2023-02-15T07:00:43;130;104;
62054;PMS5003;48653;51.742;-1.256;2023-02-15T07:03:09;140;111;
62054;PMS5003;48653;51.742;-1.256;2023-02-15T07:05:34;129;113;
62054;PMS5003;48653;51.742;-1.256;2023-02-15T07:08:00;137;117;
62054;PMS5003;48653;51.742;-1.256;2023-02-15T07:10:25;139;110;
62054;PMS5003;48653;51.742;-1.256;2023-02-15T07:12:50;147;119;
62054;PMS5003;48653;51.742;-1.256;2023-02-15T07:15:16;132;109;
62054;PMS5003;48653;51.742;-1.256;2023-02-15T07:17:41;144;118;
62054;PMS5003;48653;51.742;-1.256;2023-02-15T07:20:09;131;114;
62054;PMS5003;48653;51.742;-1.256;2023-02-15T07:22:32;139;120;
62054;PMS5003;48653;51.742;-1.256;2023-02-15T07:24:58;147;118;
62054;PMS5003;48653;51.742;-1.256;2023-02-15T07:27:23;140;117;
62054;PMS5003;48653;51.742;-1.256;2023-02-15T07:29:49;133;113;
62054;PMS5003;48653;51.742;-1.256;2023-02-15T07:32:14;139;118;
62054;PMS5003;48653;51.742;-1.256;2023-02-15T07:34:40;135;114;
62054;PMS5003;48653;51.742;-1.256;2023-02-15T07:37:05;122;108;
62054;PMS5003;48653;51.742;-1.256;2023-02-15T07:39:30;134;115;
62054;PMS5003;48653;51.742;-1.256;2023-02-15T07:41:55;140;114;
62054;PMS5003;48653;51.742;-1.256;2023-02-15T07:44:20;144;121;
62054;PMS5003;48653;51.742;-1.256;2023-02-15T07:46:46;138;115;
62054;PMS5003;48653;51.742;-1.256;2023-02-15T07:49:12;136;120;
62054;PMS5003;48653;51.742;-1.256;2023-02-15T07:51:38;134;110;
62054;PMS5003;48653;51.742;-1.256;2023-02-15T07:54:03;135;114;
62054;PMS5003;48653;51.742;-1.256;2023-02-15T07:56:29;137;110;
62054;PMS5003;48653;51.742;-1.256;2023-02-15T07:58:55;155;124;
62054;PMS5003;48653;51.742;-1.256;2023-02-15T08:01:21;133;116;
62054;PMS5003;48653;51.742;-1.256;2023-02-15T08:03:45;131;109;
62054;PMS5003;48653;51.742;-1.256;2023-02-15T08:06:11;140;115;
62054;PMS5003;48653;51.742;-1.256;2023-02-15T08:08:37;139;113;
62054;PMS5003;48653;51.742;-1.256;2023-02-15T08:11:03;139;114;
62054;PMS5003;48653;51.742;-1.256;2023-02-15T08:13:27;142;112;
62054;PMS5003;48653;51.742;-1.256;2023-02-15T08:15:53;141;116;
62054;PMS5003;48653;51.742;-1.256;2023-02-15T08:18:18;131;113;
62054;PMS5003;48653;51.742;-1.256;2023-02-15T08:23:08;131;112;
62054;PMS5003;48653;51.742;-1.256;2023-02-15T08:25:34;129;107;
62054;PMS5003;48653;51.742;-1.256;2023-02-15T08:27:59;137;113;
62054;PMS5003;48653;51.742;-1.256;2023-02-15T08:30:25;135;111;
62054;PMS5003;48653;51.742;-1.256;2023-02-15T08:32:50;134;108;
62054;PMS5003;48653;51.742;-1.256;2023-02-15T08:35:16;146;122;
62054;PMS5003;48653;51.742;-1.256;2023-02-15T08:37:41;134;112;
62054;PMS5003;48653;51.742;-1.256;2023-02-15T08:40:07;123;108;
62054;PMS5003;48653;51.742;-1.256;2023-02-15T08:42:32;134;109;
62054;PMS5003;48653;51.742;-1.256;2023-02-15T08:44:57;132;113;
62054;PMS5003;48653;51.742;-1.256;2023-02-15T08:47:23;143;124;
62054;PMS5003;48653;51.742;-1.256;2023-02-15T08:49:48;124;110;
62054;PMS5003;48653;51.742;-1.256;2023-02-15T08:52:14;140;115;
62054;PMS5003;48653;51.742;-1.256;2023-02-15T08:54:39;137;112;
62054;PMS5003;48653;51.742;-1.256;2023-02-15T08:57:04;128;107;
62054;PMS5003;48653;51.742;-1.256;2023-02-15T08:59:29;135;111;
62054;PMS5003;48653;51.742;-1.256;2023-02-15T09:01:55;125;112;
62054;PMS5003;48653;51.742;-1.256;2023-02-15T09:04:21;139;112;
62054;PMS5003;48653;51.742;-1.256;2023-02-15T09:06:47;128;114;
62054;PMS5003;48653;51.742;-1.256;2023-02-15T09:09:12;134;111;
62054;PMS5003;48653;51.742;-1.256;2023-02-15T09:11:38;119;104;
62054;PMS5003;48653;51.742;-1.256;2023-02-15T09:14:03;129;111;
62054;PMS5003;48653;51.742;-1.256;2023-02-15T09:16:28;133;107;
62054;PMS5003;48653;51.742;-1.256;2023-02-15T09:18:53;131;120;
62054;PMS5003;48653;51.742;-1.256;2023-02-15T09:21:19;127;109;
62054;PMS5003;48653;51.742;-1.256;2023-02-15T09:23:45;130;110;
62054;PMS5003;48653;51.742;-1.256;2023-02-15T09:26:11;118;102;
62054;PMS5003;48653;51.742;-1.256;2023-02-15T09:28:35;131;107;
62054;PMS5003;48653;51.742;-1.256;2023-02-15T09:31:06;125;107;
62054;PMS5003;48653;51.742;-1.256;2023-02-15T09:33:25;124;110;
62054;PMS5003;48653;51.742;-1.256;2023-02-15T09:35:51;118;102;
62054;PMS5003;48653;51.742;-1.256;2023-02-15T09:38:17;126;104;
62054;PMS5003;48653;51.742;-1.256;2023-02-15T09:40:45;117;104;
62054;PMS5003;48653;51.742;-1.256;2023-02-15T09:43:12;128;104;
62054;PMS5003;48653;51.742;-1.256;2023-02-15T09:45:38;123;109;
62054;PMS5003;48653;51.742;-1.256;2023-02-15T09:48:03;123;107;
62054;PMS5003;48653;51.742;-1.256;2023-02-15T09:50:25;156;136;
62054;PMS5003;48653;51.742;-1.256;2023-02-15T09:52:53;164;154;
62054;PMS5003;48653;51.742;-1.256;2023-02-15T09:55:18;191;173;
62054;PMS5003;48653;51.742;-1.256;2023-02-15T09:57:42;182;163;
62054;PMS5003;48653;51.742;-1.256;2023-02-15T10:00:07;165;145;
62054;PMS5003;48653;51.742;-1.256;2023-02-15T10:02:35;141;126;
62054;PMS5003;48653;51.742;-1.256;2023-02-15T10:04:59;135;118;
62054;PMS5003;48653;51.742;-1.256;2023-02-15T10:07:25;117;105;
62054;PMS5003;48653;51.742;-1.256;2023-02-15T10:09:49;108;99;
62054;PMS5003;48653;51.742;-1.256;2023-02-15T10:12:17;105;93;
62054;PMS5003;48653;51.742;-1.256;2023-02-15T10:14:40;119;101;
62054;PMS5003;48653;51.742;-1.256;2023-02-15T10:17:06;97;85;
62054;PMS5003;48653;51.742;-1.256;2023-02-15T10:19:31;108;91;
62054;PMS5003;48653;51.742;-1.256;2023-02-15T10:21:56;89;81;
62054;PMS5003;48653;51.742;-1.256;2023-02-15T10:24:24;87;82;
62054;PMS5003;48653;51.742;-1.256;2023-02-15T10:26:44;91;79;
62054;PMS5003;48653;51.742;-1.256;2023-02-15T10:29:11;94;86;
62054;PMS5003;48653;51.742;-1.256;2023-02-15T10:31:36;96;86;
62054;PMS5003;48653;51.742;-1.256;2023-02-15T10:34:05;84;74;
62054;PMS5003;48653;51.742;-1.256;2023-02-15T10:36:28;91;77;
62054;PMS5003;48653;51.742;-1.256;2023-02-15T10:38:51;90;80;
62054;PMS5003;48653;51.742;-1.256;2023-02-15T10:41:20;80;76;
62054;PMS5003;48653;51.742;-1.256;2023-02-15T10:43:44;80;71;
62054;PMS5003;48653;51.742;-1.256;2023-02-15T10:46:08;80;73;
62054;PMS5003;48653;51.742;-1.256;2023-02-15T10:48:37;77;73;
62054;PMS5003;48653;51.742;-1.256;2023-02-15T10:50:59;84;74;
62054;PMS5003;48653;51.742;-1.256;2023-02-15T10:53:28;83;74;
62054;PMS5003;48653;51.742;-1.256;2023-02-15T10:55:51;69;65;
62054;PMS5003;48653;51.742;-1.256;2023-02-15T10:58:16;74;69;
62054;PMS5003;48653;51.742;-1.256;2023-02-15T11:00:40;72;63;
62054;PMS5003;48653;51.742;-1.256;2023-02-15T11:03:11;74;67;
62054;PMS5003;48653;51.742;-1.256;2023-02-15T11:05:35;72;61;
62054;PMS5003;48653;51.742;-1.256;2023-02-15T11:07:57;61;54;
62054;PMS5003;48653;51.742;-1.256;2023-02-15T11:10:24;68;60;
62054;PMS5003;48653;51.742;-1.256;2023-02-15T11:12:47;68;59;
62054;PMS5003;48653;51.742;-1.256;2023-02-15T11:15:21;57;53;
62054;PMS5003;48653;51.742;-1.256;2023-02-15T11:17:38;57;53;
62054;PMS5003;48653;51.742;-1.256;2023-02-15T11:20:07;55;51;
62054;PMS5003;48653;51.742;-1.256;2023-02-15T11:22:29;51;48;
62054;PMS5003;48653;51.742;-1.256;2023-02-15T11:24:55;58;51;
62054;PMS5003;48653;51.742;-1.256;2023-02-15T11:27:20;62;52;
62054;PMS5003;48653;51.742;-1.256;2023-02-15T11:29:50;61;53;
62054;PMS5003;48653;51.742;-1.256;2023-02-15T11:32:13;57;49;
62054;PMS5003;48653;51.742;-1.256;2023-02-15T11:34:37;49;42;
62054;PMS5003;48653;51.742;-1.256;2023-02-15T11:37:05;53;47;
62054;PMS5003;48653;51.742;-1.256;2023-02-15T11:39:28;51;44;
62054;PMS5003;48653;51.742;-1.256;2023-02-15T11:41:55;54;48;
62054;PMS5003;48653;51.742;-1.256;2023-02-15T11:44:20;50;47;
62054;PMS5003;48653;51.742;-1.256;2023-02-15T11:46:44;47;44;
62054;PMS5003;48653;51.742;-1.256;2023-02-15T11:49:15;39;35;
62054;PMS5003;48653;51.742;-1.256;2023-02-15T11:51:36;48;43;
62054;PMS5003;48653;51.742;-1.256;2023-02-15T11:54:01;40;38;
62054;PMS5003;48653;51.742;-1.256;2023-02-15T11:56:26;44;42;
62054;PMS5003;48653;51.742;-1.256;2023-02-15T11:58:52;35;34;
62054;PMS5003;48653;51.742;-1.256;2023-02-15T12:01:20;42;38;
62054;PMS5003;48653;51.742;-1.256;2023-02-15T12:03:45;38;36;
62054;PMS5003;48653;51.742;-1.256;2023-02-15T12:06:11;41;38;
62054;PMS5003;48653;51.742;-1.256;2023-02-15T12:08:36;42;35;
62054;PMS5003;48653;51.742;-1.256;2023-02-15T12:11:02;44;41;
62054;PMS5003;48653;51.742;-1.256;2023-02-15T12:13:26;45;43;
62054;PMS5003;48653;51.742;-1.256;2023-02-15T12:15:52;38;35;
62054;PMS5003;48653;51.742;-1.256;2023-02-15T12:18:29;38;35;
62054;PMS5003;48653;51.742;-1.256;2023-02-15T12:20:42;36;32;
62054;PMS5003;48653;51.742;-1.256;2023-02-15T12:23:11;40;38;
62054;PMS5003;48653;51.742;-1.256;2023-02-15T12:25:34;36;36;
62054;PMS5003;48653;51.742;-1.256;2023-02-15T12:27:57;37;32;
62054;PMS5003;48653;51.742;-1.256;2023-02-15T12:30:23;34;31;
62054;PMS5003;48653;51.742;-1.256;2023-02-15T12:32:49;39;33;
62054;PMS5003;48653;51.742;-1.256;2023-02-15T12:35:13;36;33;
62054;PMS5003;48653;51.742;-1.256;2023-02-15T12:37:38;32;30;
62054;PMS5003;48653;51.742;-1.256;2023-02-15T12:44:55;37;35;
62054;PMS5003;48653;51.742;-1.256;2023-02-15T12:47:19;40;36;
62054;PMS5003;48653;51.742;-1.256;2023-02-15T12:50:00;39;36;
62054;PMS5003;48653;51.742;-1.256;2023-02-15T12:54:38;37;32;
62054;PMS5003;48653;51.742;-1.256;2023-02-15T12:57:14;40;33;
62054;PMS5003;48653;51.742;-1.256;2023-02-15T12:59:28;41;34;
62054;PMS5003;48653;51.742;-1.256;2023-02-15T13:01:53;34;33;
62054;PMS5003;48653;51.742;-1.256;2023-02-15T13:04:21;36;33;
62054;PMS5003;48653;51.742;-1.256;2023-02-15T13:06:46;39;35;
62054;PMS5003;48653;51.742;-1.256;2023-02-15T13:09:13;33;31;
62054;PMS5003;48653;51.742;-1.256;2023-02-15T13:11:35;39;36;
62054;PMS5003;48653;51.742;-1.256;2023-02-15T13:14:02;39;35;
62054;PMS5003;48653;51.742;-1.256;2023-02-15T13:16:27;36;31;
62054;PMS5003;48653;51.742;-1.256;2023-02-15T13:18:52;30;27;
62054;PMS5003;48653;51.742;-1.256;2023-02-15T13:21:18;31;29;
62054;PMS5003;48653;51.742;-1.256;2023-02-15T13:23:43;39;30;
62054;PMS5003;48653;51.742;-1.256;2023-02-15T13:26:09;36;34;
62054;PMS5003;48653;51.742;-1.256;2023-02-15T13:28:35;33;30;
62054;PMS5003;48653;51.742;-1.256;2023-02-15T13:30:58;27;26;
62054;PMS5003;48653;51.742;-1.256;2023-02-15T13:33:25;32;28;
62054;PMS5003;48653;51.742;-1.256;2023-02-15T13:35:49;30;28;
62054;PMS5003;48653;51.742;-1.256;2023-02-15T13:38:18;31;23;
62054;PMS5003;48653;51.742;-1.256;2023-02-15T13:40:41;31;31;
62054;PMS5003;48653;51.742;-1.256;2023-02-15T13:43:05;35;30;
62054;PMS5003;48653;51.742;-1.256;2023-02-15T13:45:34;38;34;
62054;PMS5003;48653;51.742;-1.256;2023-02-15T13:47:57;29;27;
62054;PMS5003;48653;51.742;-1.256;2023-02-15T13:52:48;32;28;
62054;PMS5003;48653;51.742;-1.256;2023-02-15T13:57:41;33;32;
62054;PMS5003;48653;51.742;-1.256;2023-02-15T14:00:09;38;34;
62054;PMS5003;48653;51.742;-1.256;2023-02-15T14:02:33;35;33;
62054;PMS5003;48653;51.742;-1.256;2023-02-15T14:04:59;36;32;
62054;PMS5003;48653;51.742;-1.256;2023-02-15T14:07:23;36;29;
62054;PMS5003;48653;51.742;-1.256;2023-02-15T14:09:47;38;34;
62054;PMS5003;48653;51.742;-1.256;2023-02-15T14:12:16;34;32;
62054;PMS5003;48653;51.742;-1.256;2023-02-15T14:14:41;36;32;
62054;PMS5003;48653;51.742;-1.256;2023-02-15T14:17:03;39;38;
62054;PMS5003;48653;51.742;-1.256;2023-02-15T14:19:29;40;36;
62054;PMS5003;48653;51.742;-1.256;2023-02-15T14:21:53;37;34;
62054;PMS5003;48653;51.742;-1.256;2023-02-15T14:24:21;33;30;
62054;PMS5003;48653;51.742;-1.256;2023-02-15T14:26:45;35;33;
62054;PMS5003;48653;51.742;-1.256;2023-02-15T14:29:14;41;35;
62054;PMS5003;48653;51.742;-1.256;2023-02-15T14:31:37;36;34;
62054;PMS5003;48653;51.742;-1.256;2023-02-15T14:34:00;37;30;
62054;PMS5003;48653;51.742;-1.256;2023-02-15T14:36:26;37;36;
62054;PMS5003;48653;51.742;-1.256;2023-02-15T14:38:54;35;33;
62054;PMS5003;48653;51.742;-1.256;2023-02-15T14:41:17;35;31;
62054;PMS5003;48653;51.742;-1.256;2023-02-15T14:43:46;40;35;
62054;PMS5003;48653;51.742;-1.256;2023-02-15T14:46:10;32;32;
62054;PMS5003;48653;51.742;-1.256;2023-02-15T14:48:36;35;33;
62054;PMS5003;48653;51.742;-1.256;2023-02-15T14:50:59;32;32;
62054;PMS5003;48653;51.742;-1.256;2023-02-15T14:53:32;39;33;
62054;PMS5003;48653;51.742;-1.256;2023-02-15T14:58:15;44;38;
62054;PMS5003;48653;51.742;-1.256;2023-02-15T15:00:40;35;32;
62054;PMS5003;48653;51.742;-1.256;2023-02-15T15:03:10;35;33;
62054;PMS5003;48653;51.742;-1.256;2023-02-15T15:05:32;34;31;
62054;PMS5003;48653;51.742;-1.256;2023-02-15T15:07:56;37;34;
62054;PMS5003;48653;51.742;-1.256;2023-02-15T15:12:47;34;30;
62054;PMS5003;48653;51.742;-1.256;2023-02-15T15:15:12;34;29;
62054;PMS5003;48653;51.742;-1.256;2023-02-15T15:20:03;34;30;
62054;PMS5003;48653;51.742;-1.256;2023-02-15T15:22:29;35;31;
62054;PMS5003;48653;51.742;-1.256;2023-02-15T15:24:54;33;30;
62054;PMS5003;48653;51.742;-1.256;2023-02-15T15:29:45;31;30;
62054;PMS5003;48653;51.742;-1.256;2023-02-15T15:32:11;32;27;
62054;PMS5003;48653;51.742;-1.256;2023-02-15T15:37:10;36;33;
62054;PMS5003;48653;51.742;-1.256;2023-02-15T15:39:33;31;27;
62054;PMS5003;48653;51.742;-1.256;2023-02-15T15:41:53;33;29;
62054;PMS5003;48653;51.742;-1.256;2023-02-15T15:46:53;29;28;
62054;PMS5003;48653;51.742;-1.256;2023-02-15T15:49:10;30;27;
62054;PMS5003;48653;51.742;-1.256;2023-02-15T15:51:35;33;30;
62054;PMS5003;48653;51.742;-1.256;2023-02-15T15:54:00;27;27;
62054;PMS5003;48653;51.742;-1.256;2023-02-15T15:56:26;29;22;
62054;PMS5003;48653;51.742;-1.256;2023-02-15T15:58:52;29;25;
62054;PMS5003;48653;51.742;-1.256;2023-02-15T16:01:16;26;24;
62054;PMS5003;48653;51.742;-1.256;2023-02-15T16:06:10;33;26;
62054;PMS5003;48653;51.742;-1.256;2023-02-15T16:08:33;42;33;
62054;PMS5003;48653;51.742;-1.256;2023-02-15T16:10:58;35;29;
62054;PMS5003;48653;51.742;-1.256;2023-02-15T16:13:24;29;26;
62054;PMS5003;48653;51.742;-1.256;2023-02-15T16:15:50;28;27;
62054;PMS5003;48653;51.742;-1.256;2023-02-15T16:18:16;34;28;
62054;PMS5003;48653;51.742;-1.256;2023-02-15T16:20:40;29;25;
62054;PMS5003;48653;51.742;-1.256;2023-02-15T16:23:12;29;27;